Station: Goulburn Airport

  Atmospheric Gas Attenuation - ITU Rec 676-11   --------------- db/100km ---------------
Date Time Temp RH % AH g/m3 Dew Point Wind Direction Speed kph Gust kph Barometer mB Rainfall Since 9am 24GHz 47GHz 76GHz 122GHz 134GHz 241GHz
22 14:20 21.7 51 9.73 11.1 15 20 1021.5 0 21.6 25.7 40.6 106.6 103.4 356.8
22 14:10 21.9 53 10.23 11.9 19 20 1021.6 0 22.6 26.4 42.4 111.4 109.3 377.8
22 14:00 21.3 58 10.81 12.7 19 26 1021.6 0 23.9 27.5 45.0 118.2 117.6 406.6
22 13:50 20.6 55 9.84 11.2 19 24 1021.7 0 21.9 26.2 41.6 109.2 106.2 366.6
22 13:40 21.1 56 10.32 12 17 20 1021.8 0 22.8 26.8 43.2 113.4 111.6 385.6
22 13:30 20.1 56 9.73 11.1 20 30 1021.8 0 21.7 26.2 41.4 108.7 105.5 364.1
22 13:20 20.9 58 10.56 12.3 17 20 1022 0 23.4 27.2 44.2 116.2 115.0 397.5
22 13:10 20.7 52 9.36 10.5 13 15 1022.2 0 20.8 25.4 39.7 104.2 100.1 345.3
22 13:00 20.8 53 9.6 10.9 13 24 1022.1 0 21.3 25.8 40.6 106.5 103.0 355.3
22 12:50 21.8 50 9.59 10.9 19 20 1022.4 0 21.3 25.5 40.1 105.1 101.6 350.5
22 12:40 20.4 56 9.91 11.3 17 19 1022.5 0 22.0 26.4 42.0 110.3 107.4 370.9
22 12:30 21.5 55 10.37 12.1 20 28 1022.4 0 22.9 26.8 43.2 113.5 111.8 386.1
22 12:20 21.8 53 10.17 11.8 20 24 1022.6 0 22.5 26.4 42.3 111.0 108.8 375.9
22 12:10 21.4 53 9.94 11.4 20 24 1022.9 0 22.0 26.2 41.6 109.2 106.5 367.7
22 12:00 21.3 54 10.06 11.6 19 28 1022.8 0 22.3 26.4 42.1 110.6 108.1 373.4
22 11:50 20.5 54 9.61 10.9 17 20 1023.2 0 21.4 25.9 40.8 107.1 103.6 357.4
22 11:40 20.7 50 9 9.9 17 19 1023.3 0 20.1 24.9 38.4 100.7 95.8 330.0
22 11:30 19.6 55 9.28 10.3 20 26 1023.3 0 20.7 25.7 40.0 105.0 100.6 346.9
22 11:20 20.8 50 9.05 10 15 22 1023.4 0 20.2 25.0 38.6 101.1 96.3 331.8
22 11:10 20.6 53 9.48 10.7 20 26 1023.5 0 21.1 25.7 40.3 105.7 101.8 351.3
22 11:00 19.5 60 10.07 11.5 17 22 1023.4 0 22.4 26.9 43.1 113.3 110.8 382.6
22 10:50 19.2 60 9.89 11.3 7 7 1023.6 0 22.0 26.8 42.6 111.8 108.9 376.0
22 10:40 19.5 58 9.73 11 13 19 1023.7 0 21.7 26.4 41.8 109.8 106.5 367.4
22 10:30 19.8 58 9.91 11.3 15 22 1023.6 0 22.1 26.6 42.4 111.2 108.4 374.1
22 10:20 19.9 63 10.82 12.7 17 20 1023.8 0 24.0 28.0 45.9 120.7 120.1 415.0
22 10:10 18 66 10.14 11.6 15 19 1023.9 0 22.6 27.5 44.3 116.3 114.0 393.4
22 10:00 19.3 61 10.12 11.6 15 20 1023.8 0 22.5 27.1 43.5 114.1 111.8 386.0
22 09:50 19.1 67 10.98 12.8 15 17 1023.9 0 24.4 28.6 47.0 123.7 123.5 426.8
22 09:40 17.6 70 10.5 12.1 15 19 1024 0 23.4 28.3 46.0 120.8 119.4 412.3
22 09:30 17.7 69 10.41 11.9 17 24 1023.9 0 23.2 28.1 45.5 119.6 118.0 407.5
22 09:20 17.3 73 10.75 12.4 9 11 1024 0 24.0 28.8 47.2 124.0 123.2 425.8
22 09:10 16.7 76 10.8 12.5 9 13 1024.2 0 24.1 29.1 47.7 125.5 124.9 431.5
22 09:00 17.1 77 11.21 13 11 15 1024.1 0 25.0 29.6 49.2 129.5 129.9 449.1
22 08:50 16.4 84 11.72 13.7 7 7 1024.3 0 26.1 30.7 51.9 136.6 138.4 478.4
22 08:40 15.5 88 11.63 13.5 7 11 1024.3 0 26.0 30.9 52.1 137.1 138.7 479.5
22 08:30 14.9 87 11.09 12.8 7 9 1024.1 0 24.8 30.2 50.1 131.8 132.0 456.0
22 08:20 14.9 92 11.73 13.6 7 9 1024.2 0 26.2 31.3 52.9 139.3 141.3 488.3
22 08:10 13.7 93 11.01 12.6 9 9 1024 0 24.7 30.4 50.5 132.9 132.9 459.1
22 08:00 13.2 97 11.14 12.7 4 7 1023.9 0 25.1 30.8 51.4 135.3 135.7 468.7
22 07:50 12.8 99 11.09 12.6 0 6 1024.2 0 25.0 30.9 51.5 135.5 135.7 468.7
22 07:40 12.5 99 10.89 12.3 6 6 1024 0 24.6 30.6 50.8 133.6 133.3 460.2
22 07:30 11.8 99 10.42 11.6 6 7 1023.8 0 23.6 30.0 49.1 129.2 127.6 440.2
22 07:20 11.3 99 10.1 11.1 7 7 1023.8 0 22.9 29.6 48.0 126.2 123.8 426.7
22 07:10 10.7 99 9.73 10.5 9 9 1023.7 0 22.2 29.2 46.7 122.8 119.3 411.2
22 07:00 10.3 99 9.48 10.1 9 11 1023.5 0 21.6 28.9 45.9 120.5 116.3 400.6
22 06:50 10 99 9.3 9.9 9 9 1023.6 0 21.3 28.7 45.3 118.9 114.2 393.1
22 06:40 10 99 9.3 9.9 9 9 1023.5 0 21.3 28.6 45.3 118.8 114.2 393.1
22 06:30 9.7 99 9.13 9.6 7 7 1023.4 0 20.9 28.4 44.7 117.3 112.2 386.0
22 06:20 9.9 99 9.25 9.8 7 7 1023.4 0 21.2 28.6 45.1 118.4 113.6 391.1
22 06:10 10.5 99 9.6 10.3 0 0 1023.5 0 21.9 29.0 46.3 121.6 117.8 405.6
22 06:00 10.5 99 9.6 10.3 0 0 1023.4 0 21.9 29.0 46.3 121.6 117.7 405.6
22 05:50 10.2 99 9.42 10 0 0 1023.4 0 21.5 28.8 45.7 119.9 115.6 398.1
22 05:30 10.3 99 9.48 10.1 0 0 1023.2 0 21.6 28.9 45.9 120.4 116.3 400.5
22 05:20 10.3 99 9.48 10.1 0 0 1023.4 0 21.6 28.9 45.9 120.5 116.3 400.6
22 05:10 10.3 99 9.48 10.1 0 0 1023.4 0 21.6 28.9 45.9 120.5 116.3 400.6
22 05:00 10.2 99 9.42 10.1 0 0 1023.4 0 21.5 28.8 45.7 119.9 115.6 398.1
22 04:50 9.9 99 9.25 9.8 0 0 1023.5 0 21.2 28.6 45.1 118.4 113.6 391.1
22 04:40 9.4 99 8.96 9.3 0 0 1023.6 0 20.6 28.3 44.1 115.8 110.2 379.1
22 04:30 9.2 99 8.84 9.1 4 7 1023.5 0 20.3 28.1 43.7 114.7 108.8 374.0
22 04:20 9.4 99 8.96 9.3 7 7 1023.7 0 20.6 28.3 44.1 115.8 110.2 379.1
22 04:10 9.5 99 9.01 9.4 6 6 1023.7 0 20.7 28.3 44.3 116.2 110.8 381.1
22 04:00 9.7 99 9.13 9.6 7 9 1023.7 0 20.9 28.5 44.7 117.3 112.2 386.1
22 03:50 9.1 99 8.79 9 7 9 1023.9 0 20.2 28.1 43.6 114.3 108.2 372.1
22 03:40 8.9 99 8.68 8.8 7 7 1024.2 0 20.0 27.9 43.2 113.4 107.0 367.7
22 03:30 9 99 8.73 8.9 2 7 1024 0 20.1 28.0 43.4 113.8 107.5 369.6
22 03:20 9.1 99 8.79 9 4 6 1024.2 0 20.2 28.1 43.6 114.3 108.3 372.2
22 03:10 9.1 98 8.7 8.8 6 7 1024.3 0 20.0 27.9 43.2 113.3 107.0 367.7
22 03:00 9.5 98 8.92 9.2 2 6 1024.1 0 20.5 28.2 43.9 115.2 109.5 376.7
22 02:50 9.4 98 8.87 9.1 6 6 1024.4 0 20.4 28.1 43.8 114.8 109.0 374.8
22 02:40 9.4 97 8.78 8.9 6 7 1024.6 0 20.2 28.0 43.4 113.8 107.7 370.4
22 02:30 9.5 97 8.83 9 2 7 1024.6 0 20.3 28.0 43.6 114.3 108.3 372.4
22 02:20 9.5 95 8.65 8.7 0 0 1024.7 0 19.9 27.7 42.8 112.2 105.7 363.5
22 02:10 10 95 8.93 9.2 0 0 1024.8 0 20.5 28.1 43.7 114.7 109.0 375.0
22 02:00 10.9 97 9.65 10.4 0 0 1024.7 0 22.0 29.0 46.3 121.7 118.0 406.4
22 01:50 11.3 97 9.9 10.8 0 0 1024.8 0 22.5 29.3 47.2 124.0 121.0 416.9
22 01:40 11.1 96 9.67 10.5 6 7 1024.9 0 22.0 29.0 46.3 121.6 118.0 406.4
22 01:30 10.8 94 9.29 9.9 0 6 1024.9 0 21.2 28.4 44.8 117.7 113.0 389.0
22 01:20 11.6 95 9.88 10.8 6 6 1025.1 0 22.4 29.2 46.9 123.3 120.2 414.4
22 01:10 11.7 95 9.94 10.9 7 7 1025.2 0 22.6 29.3 47.1 123.8 120.9 416.9
22 01:00 12 94 10.02 11.1 11 15 1025.1 0 22.7 29.3 47.3 124.3 121.6 419.3
22 00:50 11.7 92 9.62 10.4 7 9 1025.2 0 21.9 28.7 45.7 120.1 116.4 400.9
22 00:40 12.3 93 10.1 11.2 7 7 1025.3 0 22.9 29.4 47.5 124.8 122.3 421.7
22 00:30 12.7 93 10.35 11.6 13 15 1025.3 0 23.4 29.7 48.3 127.0 125.2 432.0
22 00:20 12.9 93 10.48 11.8 13 15 1025.7 0 23.6 29.8 48.8 128.3 126.8 437.6
22 00:10 13.1 93 10.61 12 17 20 1025.7 0 23.9 30.0 49.2 129.5 128.3 443.0
22 00:00 13.2 93 10.68 12.1 17 24 1025.6 0 24.1 30.1 49.5 130.1 129.2 445.9
21 23:50 13.2 93 10.68 12.1 20 26 1025.8 0 24.1 30.1 49.5 130.1 129.2 446.0
21 23:40 13.3 92 10.63 12 17 22 1025.8 0 23.9 30.0 49.2 129.4 128.3 442.9
21 23:30 13.3 92 10.63 12 15 20 1025.7 0 23.9 30.0 49.2 129.4 128.3 442.8
21 23:20 13.5 92 10.76 12.2 20 24 1025.9 0 24.2 30.1 49.7 130.6 129.9 448.3
21 23:10 13.5 91 10.64 12.1 17 20 1026 0 24.0 29.9 49.1 129.2 128.1 442.3
21 23:00 13.5 90 10.53 11.9 17 24 1026 0 23.7 29.7 48.7 127.9 126.6 436.8
21 22:50 13.9 89 10.67 12.1 17 24 1026.2 0 24.0 29.9 49.0 128.9 127.9 441.6
21 22:40 14 89 10.74 12.2 20 20 1026.2 0 24.1 29.9 49.3 129.5 128.7 444.5
21 22:30 14.2 89 10.87 12.4 20 28 1026.1 0 24.4 30.1 49.7 130.7 130.3 449.8
21 22:20 13.9 90 10.79 12.3 19 22 1026.2 0 24.3 30.1 49.5 130.3 129.6 447.6
21 22:10 14.1 88 10.68 12.1 17 22 1026.3 0 24.0 29.8 48.9 128.7 127.7 441.0
21 22:00 14.2 87 10.62 12.1 20 26 1026.1 0 23.9 29.7 48.6 127.8 126.7 437.3
21 21:50 14.4 87 10.75 12.3 22 28 1026.2 0 24.1 29.8 49.1 129.0 128.2 442.7
21 21:40 14.5 86 10.7 12.2 22 28 1026.2 0 24.0 29.7 48.8 128.2 127.3 439.6

Last Refresh: 22-Jan-2022 13:53:54

Bureau of Meteorology